createdAt,value
2023-04-26T00:02:27.845Z,4.20
2023-04-26T00:04:58.863Z,3.58
2023-04-26T00:07:28.668Z,4.00
2023-04-26T00:09:56.797Z,5.88
2023-04-26T00:12:24.987Z,3.63
2023-04-26T00:14:53.057Z,4.78
2023-04-26T00:17:22.530Z,2.67
2023-04-26T00:19:51.101Z,4.32
2023-04-26T00:22:19.230Z,3.80
2023-04-26T00:24:47.446Z,4.20
2023-04-26T00:27:15.742Z,4.70
2023-04-26T00:29:43.875Z,4.57
2023-04-26T00:32:12.020Z,6.07
2023-04-26T00:34:41.451Z,4.30
2023-04-26T00:37:09.483Z,5.65
2023-04-26T00:39:37.492Z,5.35
2023-04-26T00:42:05.812Z,5.63
2023-04-26T00:44:33.865Z,5.07
2023-04-26T00:47:02.377Z,5.03
2023-04-26T00:49:31.115Z,9.18
2023-04-26T00:52:00.940Z,3.55
2023-04-26T00:54:29.831Z,5.65
2023-04-26T00:56:58.476Z,4.05
2023-04-26T00:59:28.197Z,5.72
2023-04-26T01:01:57.613Z,4.05
2023-04-26T01:04:27.576Z,6.88
2023-04-26T01:06:56.488Z,6.53
2023-04-26T01:09:25.906Z,5.95
2023-04-26T01:11:56.741Z,5.15
2023-04-26T01:14:25.127Z,4.93
2023-04-26T01:16:53.349Z,5.30
2023-04-26T01:19:21.437Z,3.75
2023-04-26T01:21:49.550Z,6.00
2023-04-26T01:24:18.973Z,3.92
2023-04-26T01:26:47.037Z,4.45
2023-04-26T01:29:18.861Z,5.30
2023-04-26T01:31:47.540Z,5.90
2023-04-26T01:34:15.964Z,6.47
2023-04-26T01:36:44.154Z,5.15
2023-04-26T01:39:12.810Z,4.18
2023-04-26T01:41:42.202Z,6.65
2023-04-26T01:44:10.253Z,4.55
2023-04-26T01:46:38.388Z,4.05
2023-04-26T01:49:06.710Z,3.75
2023-04-26T01:51:35.335Z,5.25
2023-04-26T01:54:03.383Z,6.95
2023-04-26T01:56:31.417Z,5.45
2023-04-26T01:59:00.815Z,4.60
2023-04-26T02:01:28.913Z,6.97
2023-04-26T02:03:56.958Z,5.93
2023-04-26T02:06:24.987Z,3.60
2023-04-26T02:08:53.769Z,3.80
2023-04-26T02:11:23.114Z,6.15
2023-04-26T02:13:51.175Z,5.38
2023-04-26T02:16:21.333Z,5.18
2023-04-26T02:18:50.796Z,5.47
2023-04-26T02:21:19.436Z,4.30
2023-04-26T02:23:47.546Z,5.03
2023-04-26T02:26:15.934Z,9.18
2023-04-26T02:28:44.045Z,5.60
2023-04-26T02:31:12.273Z,7.20
2023-04-26T02:33:41.771Z,3.95
2023-04-26T02:36:10.089Z,5.22
2023-04-26T02:38:38.530Z,4.45
2023-04-26T02:41:06.827Z,5.53
2023-04-26T02:43:34.893Z,5.28
2023-04-26T02:46:03.111Z,4.70
2023-04-26T02:48:31.136Z,7.05
2023-04-26T02:51:00.616Z,5.35
2023-04-26T02:53:28.640Z,6.30
2023-04-26T02:55:56.794Z,7.05
2023-04-26T02:58:24.909Z,4.32
2023-04-26T03:00:54.693Z,5.88
2023-04-26T03:03:23.214Z,5.00
2023-04-26T03:05:51.636Z,7.72
2023-04-26T03:08:21.070Z,5.22
2023-04-26T03:10:49.199Z,7.75
2023-04-26T03:13:17.375Z,5.60
2023-04-26T03:15:47.029Z,4.35
2023-04-26T03:18:15.169Z,6.60
2023-04-26T03:20:43.638Z,4.28
2023-04-26T03:23:11.680Z,6.75
2023-04-26T03:25:41.145Z,8.40
2023-04-26T03:28:09.219Z,4.75
2023-04-26T03:30:37.324Z,4.30
2023-04-26T03:33:05.393Z,6.53
2023-04-26T03:35:33.438Z,7.43
2023-04-26T03:38:01.482Z,4.75
2023-04-26T03:40:29.762Z,6.88
2023-04-26T03:42:59.177Z,10.80
2023-04-26T03:45:27.783Z,6.90
2023-04-26T03:47:56.827Z,6.90
2023-04-26T03:50:25.184Z,7.85
2023-04-26T03:52:53.285Z,5.60
2023-04-26T03:55:21.368Z,3.90
2023-04-26T03:57:49.659Z,4.35
2023-04-26T04:00:19.367Z,4.00
2023-04-26T04:02:47.891Z,4.75
2023-04-26T04:05:16.160Z,6.28
2023-04-26T04:07:44.249Z,5.45
2023-04-26T04:10:12.668Z,6.18
2023-04-26T04:12:40.746Z,6.00
2023-04-26T04:15:10.027Z,6.60
2023-04-26T04:17:39.441Z,6.60
2023-04-26T04:20:08.925Z,4.60
2023-04-26T04:22:39.476Z,4.68
2023-04-26T04:25:09.207Z,6.20
2023-04-26T04:27:38.146Z,7.35
2023-04-26T04:30:08.718Z,6.28
2023-04-26T04:32:37.079Z,9.32
2023-04-26T04:35:07.338Z,6.13
2023-04-26T04:37:35.410Z,5.45
2023-04-26T04:40:04.585Z,4.93
2023-04-26T04:42:32.722Z,6.45
2023-04-26T04:45:01.369Z,6.90
2023-04-26T04:47:29.430Z,8.45
2023-04-26T04:49:59.046Z,5.90
2023-04-26T04:52:28.471Z,7.22
2023-04-26T04:54:56.738Z,6.63
2023-04-26T04:57:24.846Z,4.32
2023-04-26T04:59:53.263Z,6.57
2023-04-26T05:02:21.484Z,7.32
2023-04-26T05:04:49.691Z,5.32
2023-04-26T05:07:18.545Z,6.38
2023-04-26T05:09:47.992Z,8.95
2023-04-26T05:12:16.071Z,6.65
2023-04-26T05:14:44.116Z,7.32
2023-04-26T05:17:12.363Z,5.45
2023-04-26T05:19:40.455Z,9.32
2023-04-26T05:22:08.506Z,8.30
2023-04-26T05:24:36.577Z,7.43
2023-04-26T05:27:06.174Z,8.05
2023-04-26T05:29:34.240Z,7.25
2023-04-26T05:32:02.333Z,6.50
2023-04-26T05:34:30.394Z,8.73
2023-04-26T05:36:58.487Z,5.63
2023-04-26T05:39:26.666Z,6.00
2023-04-26T05:41:54.740Z,5.95
2023-04-26T05:44:24.576Z,8.10
2023-04-26T05:46:52.627Z,4.63
2023-04-26T05:49:20.722Z,5.22
2023-04-26T05:51:48.788Z,9.85
2023-04-26T05:54:16.870Z,11.38
2023-04-26T05:56:44.896Z,5.90
2023-04-26T05:59:13.695Z,5.40
2023-04-26T06:01:43.183Z,7.50
2023-04-26T06:04:11.608Z,5.15
2023-04-26T06:06:39.952Z,8.73
2023-04-26T06:09:08.678Z,9.25
2023-04-26T06:11:36.768Z,7.30
2023-04-26T06:14:04.790Z,7.15
2023-04-26T06:16:32.924Z,6.97
2023-04-26T06:19:03.519Z,6.15
2023-04-26T06:21:32.031Z,8.02
2023-04-26T06:24:00.109Z,5.70
2023-04-26T06:26:28.171Z,4.85
2023-04-26T06:28:56.211Z,6.75
2023-04-26T06:31:24.464Z,8.55
2023-04-26T06:33:52.854Z,9.20
2023-04-26T06:36:22.539Z,10.45
2023-04-26T06:38:50.627Z,7.68
2023-04-26T06:41:18.673Z,6.22
2023-04-26T06:43:46.724Z,8.68
2023-04-26T06:46:14.803Z,7.47
2023-04-26T06:48:42.928Z,7.97
2023-04-26T06:51:11.020Z,6.75
2023-04-26T06:53:41.550Z,7.40
2023-04-26T06:56:10.411Z,5.65
2023-04-26T06:58:38.528Z,5.80
2023-04-26T07:01:08.626Z,5.97
2023-04-26T07:03:36.846Z,9.13
2023-04-26T07:06:06.231Z,6.32
2023-04-26T07:08:34.268Z,8.85
2023-04-26T07:11:10.356Z,11.32
2023-04-26T07:13:41.209Z,10.48
2023-04-26T07:16:09.285Z,5.57
2023-04-26T07:18:37.312Z,4.93
2023-04-26T07:21:05.433Z,7.95
2023-04-26T07:23:33.760Z,10.63
2023-04-26T07:26:04.497Z,9.60
2023-04-26T07:28:32.935Z,4.35
2023-04-26T07:31:01.705Z,7.50
2023-04-26T07:33:29.847Z,12.10
2023-04-26T07:35:59.618Z,8.90
2023-04-26T07:38:27.726Z,5.13
2023-04-26T07:40:56.881Z,10.38
2023-04-26T07:43:27.047Z,5.72
2023-04-26T07:45:55.363Z,9.43
2023-04-26T07:48:23.448Z,7.18
2023-04-26T07:50:52.097Z,6.57
2023-04-26T07:53:20.201Z,5.22
2023-04-26T07:55:48.233Z,6.75
2023-04-26T07:58:16.256Z,4.32
2023-04-26T08:00:45.777Z,12.00
2023-04-26T08:03:18.130Z,4.85
2023-04-26T08:05:46.640Z,6.55
2023-04-26T08:08:16.588Z,4.75
2023-04-26T08:10:45.880Z,7.57
2023-04-26T08:13:13.946Z,6.45
2023-04-26T08:15:42.095Z,7.70
2023-04-26T08:18:11.522Z,5.43
2023-04-26T08:20:39.825Z,4.93
2023-04-26T08:23:07.912Z,7.55
2023-04-26T08:25:35.961Z,7.60
2023-04-26T08:28:05.012Z,9.40
2023-04-26T08:30:33.088Z,5.25
2023-04-26T08:33:01.361Z,8.35
2023-04-26T08:35:30.820Z,3.38
2023-04-26T08:37:58.880Z,5.35
2023-04-26T08:40:26.933Z,7.95
2023-04-26T08:42:55.152Z,6.40
2023-04-26T08:45:23.307Z,3.75
2023-04-26T08:47:52.749Z,4.22
2023-04-26T08:50:22.430Z,6.13
2023-04-26T08:52:52.941Z,6.30
2023-04-26T08:55:21.938Z,9.55
2023-04-26T08:57:51.661Z,4.80
2023-04-26T09:00:21.461Z,3.53
2023-04-26T09:02:51.952Z,7.03
2023-04-26T09:05:23.661Z,5.43
2023-04-26T09:07:57.653Z,4.18
2023-04-26T09:10:26.352Z,5.70
2023-04-26T09:12:55.531Z,4.53
2023-04-26T09:15:25.055Z,4.68
2023-04-26T09:17:53.452Z,7.80
2023-04-26T09:20:23.983Z,6.07
2023-04-26T09:22:55.217Z,4.72
2023-04-26T09:25:29.797Z,8.65
2023-04-26T09:27:58.666Z,26.13
2023-04-26T09:30:27.808Z,7.88
2023-04-26T09:32:58.008Z,3.83
2023-04-26T09:35:32.973Z,3.78
2023-04-26T09:38:10.522Z,4.32
2023-04-26T09:40:42.459Z,4.75
2023-04-26T09:43:12.667Z,5.07
2023-04-26T09:45:49.508Z,3.47
2023-04-26T09:48:22.028Z,5.25
2023-04-26T09:50:53.083Z,3.65
2023-04-26T09:53:30.886Z,6.37
2023-04-26T09:56:10.164Z,5.25
2023-04-26T09:58:39.490Z,3.83
2023-04-26T10:01:09.445Z,3.05
2023-04-26T10:03:38.464Z,3.75
2023-04-26T10:06:08.008Z,2.40
2023-04-26T10:08:38.105Z,3.78
2023-04-26T10:11:07.539Z,4.50
2023-04-26T10:13:36.323Z,4.70
2023-04-26T10:16:04.964Z,4.82
2023-04-26T10:18:33.300Z,2.78
2023-04-26T10:21:07.135Z,4.43
2023-04-26T10:23:35.771Z,3.28
2023-04-26T10:26:05.589Z,1.98
2023-04-26T10:29:01.452Z,8.02
2023-04-26T10:32:05.295Z,3.03
2023-04-26T10:34:34.713Z,3.13
2023-04-26T10:37:10.362Z,3.38
2023-04-26T10:39:39.050Z,4.53
2023-04-26T10:42:27.378Z,5.28
2023-04-26T10:44:56.505Z,5.25
2023-04-26T10:47:28.116Z,8.23
2023-04-26T10:50:06.228Z,3.58
2023-04-26T10:52:35.045Z,5.95
2023-04-26T10:55:03.537Z,4.65
2023-04-26T10:57:57.374Z,6.55
2023-04-26T11:00:32.989Z,4.13
2023-04-26T11:03:12.657Z,5.97
2023-04-26T11:05:53.028Z,4.60
2023-04-26T11:08:22.348Z,13.00
2023-04-26T11:11:12.020Z,9.38
2023-04-26T11:13:42.503Z,16.42
2023-04-26T11:16:11.848Z,5.68
2023-04-26T11:18:41.977Z,7.18
2023-04-26T11:21:11.174Z,6.75
2023-04-26T11:23:39.501Z,10.57
2023-04-26T11:26:08.732Z,4.97
2023-04-26T11:28:38.869Z,5.13
2023-04-26T11:31:08.559Z,3.38
2023-04-26T11:33:36.659Z,14.32
2023-04-26T11:36:05.396Z,6.03
2023-04-26T11:38:33.448Z,3.78
2023-04-26T11:41:02.869Z,5.32
2023-04-26T11:43:35.388Z,6.88
2023-04-26T11:46:04.645Z,4.60
2023-04-26T11:48:36.658Z,3.42
2023-04-26T11:53:38.109Z,4.85
2023-04-26T11:56:14.125Z,4.93
2023-04-26T11:58:44.779Z,3.60
2023-04-26T12:01:12.885Z,6.57
2023-04-26T12:03:42.606Z,4.68
2023-04-26T12:06:10.771Z,6.85
2023-04-26T12:08:38.808Z,6.07
2023-04-26T12:11:06.846Z,3.88
2023-04-26T12:13:34.903Z,4.18
2023-04-26T12:16:22.511Z,4.93
2023-04-26T12:18:56.773Z,8.35
2023-04-26T12:21:30.492Z,7.43
2023-04-26T12:23:59.110Z,6.10
2023-04-26T12:26:43.655Z,3.78
2023-04-26T12:29:11.758Z,4.32
2023-04-26T12:31:39.973Z,6.80
2023-04-26T12:34:09.416Z,4.65
2023-04-26T12:36:37.466Z,4.47
2023-04-26T12:39:06.810Z,7.40
2023-04-26T12:41:34.908Z,4.65
2023-04-26T12:44:03.010Z,3.05
2023-04-26T12:46:31.381Z,5.22
2023-04-26T12:48:59.513Z,10.73
2023-04-26T12:51:29.552Z,4.15
2023-04-26T12:53:57.688Z,6.10
2023-04-26T12:56:26.243Z,7.50
2023-04-26T12:58:54.314Z,6.70
2023-04-26T13:01:22.532Z,4.45
2023-04-26T13:03:51.004Z,4.95
2023-04-26T13:06:19.819Z,3.70
2023-04-26T13:08:49.465Z,5.13
2023-04-26T13:11:18.057Z,5.15
2023-04-26T13:13:46.145Z,7.10
2023-04-26T13:16:14.215Z,3.13
2023-04-26T13:18:42.535Z,3.85
2023-04-26T13:21:10.632Z,4.60
2023-04-26T13:23:38.676Z,6.65
2023-04-26T13:26:08.635Z,8.07
2023-04-26T13:28:37.828Z,5.97
2023-04-26T13:31:06.481Z,4.88
2023-04-26T13:33:34.636Z,5.45
2023-04-26T13:36:02.665Z,6.07
2023-04-26T13:38:32.778Z,4.28
2023-04-26T13:41:01.330Z,7.15
2023-04-26T13:43:30.748Z,3.25
2023-04-26T13:45:58.821Z,3.75
2023-04-26T13:48:27.097Z,3.72
2023-04-26T13:50:56.214Z,5.88
2023-04-26T13:53:24.312Z,4.07
2023-04-26T13:55:52.649Z,3.30
2023-04-26T13:58:20.714Z,2.83
2023-04-26T14:00:50.210Z,3.85
2023-04-26T14:03:18.414Z,2.88
2023-04-26T14:05:46.638Z,4.82
2023-04-26T14:08:14.913Z,4.18
2023-04-26T14:10:43.093Z,4.22
2023-04-26T14:13:11.537Z,6.80
2023-04-26T14:15:39.580Z,5.78
2023-04-26T14:18:09.604Z,3.97
2023-04-26T14:20:37.684Z,6.63
2023-04-26T14:23:05.712Z,4.15
2023-04-26T14:25:33.773Z,4.80
2023-04-26T14:28:03.372Z,3.85
2023-04-26T14:30:31.482Z,2.72
2023-04-26T14:32:59.602Z,2.97
2023-04-26T14:35:29.075Z,8.63
2023-04-26T14:37:57.112Z,22.50
2023-04-26T14:40:25.194Z,7.55
2023-04-26T14:42:53.240Z,5.32
2023-04-26T14:45:27.779Z,5.53
2023-04-26T14:48:02.414Z,4.07
2023-04-26T14:50:31.924Z,3.63
2023-04-26T14:53:00.143Z,3.67
2023-04-26T14:55:28.534Z,4.28
2023-04-26T14:57:56.616Z,3.65
2023-04-26T15:00:25.550Z,2.72
2023-04-26T15:02:53.741Z,6.30
2023-04-26T15:05:24.150Z,3.58
2023-04-26T15:07:53.629Z,5.30
2023-04-26T15:10:21.873Z,4.95
2023-04-26T15:12:49.922Z,3.40
2023-04-26T15:15:18.080Z,10.68
2023-04-26T15:17:46.195Z,3.88
2023-04-26T15:20:14.530Z,12.25
2023-04-26T15:22:42.973Z,134.38
2023-04-26T15:25:12.841Z,30.90
2023-04-26T15:27:41.114Z,17.63
2023-04-26T15:30:09.912Z,9.65
2023-04-26T15:32:38.181Z,8.20
2023-04-26T15:35:07.501Z,6.72
2023-04-26T15:37:38.496Z,4.70
2023-04-26T15:40:10.385Z,4.70
2023-04-26T15:42:40.190Z,8.10
2023-04-26T15:45:09.435Z,10.95
2023-04-26T15:47:37.914Z,10.95
2023-04-26T15:50:07.836Z,31.27
2023-04-26T15:52:38.898Z,13.60
2023-04-26T15:55:08.204Z,12.55
2023-04-26T15:57:36.368Z,5.70
2023-04-26T16:00:08.779Z,4.18
2023-04-26T16:02:37.425Z,4.10
2023-04-26T16:05:07.167Z,7.60
2023-04-26T16:07:35.770Z,8.90
2023-04-26T16:10:04.688Z,5.43
2023-04-26T16:12:32.738Z,4.47
2023-04-26T16:15:01.380Z,5.50
2023-04-26T16:17:31.066Z,6.95
2023-04-26T16:19:59.128Z,5.63
2023-04-26T16:22:27.218Z,6.45
2023-04-26T16:24:55.278Z,5.47
2023-04-26T16:27:23.313Z,5.00
2023-04-26T16:29:51.361Z,3.58
2023-04-26T16:32:19.532Z,6.22
2023-04-26T16:34:49.146Z,7.47
2023-04-26T16:37:17.186Z,6.63
2023-04-26T16:39:45.668Z,5.93
2023-04-26T16:42:13.705Z,3.88
2023-04-26T16:44:41.961Z,4.65
2023-04-26T16:47:10.022Z,4.45
2023-04-26T16:49:38.058Z,4.18
2023-04-26T16:52:08.440Z,2.20
2023-04-26T16:54:36.595Z,3.50
2023-04-26T16:57:04.748Z,6.03
2023-04-26T16:59:33.045Z,4.85
2023-04-26T17:02:01.390Z,4.13
2023-04-26T17:04:29.766Z,3.33
2023-04-26T17:06:57.976Z,5.30
2023-04-26T17:09:27.659Z,5.85
2023-04-26T17:11:55.728Z,3.58
2023-04-26T17:14:23.795Z,5.50
2023-04-26T17:16:51.908Z,5.15
2023-04-26T17:19:20.004Z,3.83
2023-04-26T17:21:48.060Z,4.82
2023-04-26T17:24:16.577Z,4.30
2023-04-26T17:26:46.609Z,3.20
2023-04-26T17:29:14.655Z,7.40
2023-04-26T17:31:43.443Z,3.75
2023-04-26T17:34:11.703Z,3.63
2023-04-26T17:36:39.721Z,4.45
2023-04-26T17:39:09.192Z,5.07
2023-04-26T17:41:38.227Z,6.90
2023-04-26T17:44:07.635Z,7.00
2023-04-26T17:46:35.681Z,4.43
2023-04-26T17:49:03.725Z,5.68
2023-04-26T17:51:32.981Z,7.40
2023-04-26T17:54:01.096Z,6.72
2023-04-26T17:56:29.117Z,4.85
2023-04-26T17:58:57.304Z,6.47
2023-04-26T18:01:26.899Z,5.97
2023-04-26T18:03:55.086Z,7.32
2023-04-26T18:06:23.159Z,4.38
2023-04-26T18:08:51.217Z,4.13
2023-04-26T18:11:21.013Z,4.18
2023-04-26T18:13:49.783Z,5.53
2023-04-26T18:16:17.865Z,4.28
2023-04-26T18:18:47.311Z,4.40
2023-04-26T18:21:15.328Z,3.72
2023-04-26T18:23:45.482Z,4.95
2023-04-26T18:26:13.585Z,4.82
2023-04-26T18:28:41.630Z,5.75
2023-04-26T18:31:09.753Z,4.93
2023-04-26T18:33:37.827Z,5.60
2023-04-26T18:36:07.953Z,4.18
2023-04-26T18:38:35.999Z,5.05
2023-04-26T18:41:04.050Z,4.25
2023-04-26T18:43:32.093Z,4.85
2023-04-26T18:46:00.173Z,5.75
2023-04-26T18:48:28.367Z,6.68
2023-04-26T18:50:56.786Z,6.55
2023-04-26T18:53:26.314Z,5.88
2023-04-26T18:55:54.479Z,4.72
2023-04-26T18:58:22.625Z,6.78
2023-04-26T19:00:50.688Z,5.18
2023-04-26T19:03:19.207Z,8.07
2023-04-26T19:05:47.553Z,7.70
2023-04-26T19:08:16.278Z,7.53
2023-04-26T19:10:45.709Z,7.13
2023-04-26T19:13:13.759Z,4.38
2023-04-26T19:15:41.825Z,6.65
2023-04-26T19:18:09.967Z,8.32
2023-04-26T19:20:38.032Z,6.82
2023-04-26T19:23:06.148Z,5.03
2023-04-26T19:25:34.660Z,4.40
2023-04-26T19:28:04.468Z,5.88
2023-04-26T19:30:32.614Z,6.47
2023-04-26T19:33:00.699Z,5.90
2023-04-26T19:35:28.768Z,9.35
2023-04-26T19:37:56.792Z,5.00
2023-04-26T19:40:24.841Z,5.63
2023-04-26T19:42:52.885Z,6.55
2023-04-26T19:45:22.726Z,5.57
2023-04-26T19:47:50.992Z,4.60
2023-04-26T19:50:19.251Z,5.25
2023-04-26T19:52:47.538Z,4.55
2023-04-26T19:55:15.690Z,10.52
2023-04-26T19:57:43.740Z,110.13
2023-04-26T20:00:13.116Z,311.00
2023-04-26T20:02:42.695Z,318.85
2023-04-26T20:05:11.482Z,148.18
2023-04-26T20:07:39.546Z,56.63
2023-04-26T20:10:08.998Z,32.42
2023-04-26T20:12:37.030Z,20.58
2023-04-26T20:15:05.801Z,16.77
2023-04-26T20:17:33.919Z,12.70
2023-04-26T20:20:03.750Z,10.23
2023-04-26T20:22:31.779Z,9.73
2023-04-26T20:24:59.943Z,10.23
2023-04-26T20:27:27.950Z,20.70
2023-04-26T20:29:56.374Z,18.63
2023-04-26T20:32:24.686Z,16.70
2023-04-26T20:34:52.870Z,16.38
2023-04-26T20:37:22.964Z,15.07
2023-04-26T20:39:51.360Z,20.58
2023-04-26T20:42:19.503Z,14.95
2023-04-26T20:44:47.519Z,14.48
2023-04-26T20:47:15.599Z,15.02
2023-04-26T20:49:43.706Z,15.63
2023-04-26T20:52:12.780Z,11.93
2023-04-26T20:54:42.175Z,7.57
2023-04-26T20:57:10.209Z,15.30
2023-04-26T20:59:38.294Z,8.43
2023-04-26T21:02:07.721Z,5.70
2023-04-26T21:04:38.661Z,6.18
2023-04-26T21:07:07.069Z,5.85
2023-04-26T21:09:35.175Z,6.35
2023-04-26T21:12:05.039Z,6.13
2023-04-26T21:14:33.128Z,7.90
2023-04-26T21:17:01.724Z,4.85
2023-04-26T21:19:29.765Z,5.97
2023-04-26T21:21:57.896Z,5.65
2023-04-26T21:24:25.949Z,7.10
2023-04-26T21:26:53.997Z,6.03
2023-04-26T21:29:23.431Z,5.32
2023-04-26T21:31:51.588Z,5.10
2023-04-26T21:34:20.278Z,2.67
2023-04-26T21:36:48.438Z,4.10
2023-04-26T21:39:16.531Z,5.95
2023-04-26T21:41:44.547Z,4.97
2023-04-26T21:44:13.210Z,4.60
2023-04-26T21:46:42.622Z,4.93
2023-04-26T21:49:11.400Z,6.80
2023-04-26T21:51:39.734Z,7.35
2023-04-26T21:54:07.798Z,5.68
2023-04-26T21:56:35.889Z,7.10
2023-04-26T21:59:04.754Z,7.65
2023-04-26T22:01:32.828Z,5.45
2023-04-26T22:04:02.654Z,4.75
2023-04-26T22:06:30.804Z,6.30
2023-04-26T22:08:58.829Z,5.28
2023-04-26T22:11:26.993Z,7.03
2023-04-26T22:13:55.433Z,4.70
2023-04-26T22:16:23.489Z,6.13
2023-04-26T22:18:51.539Z,5.22
2023-04-26T22:21:20.995Z,6.97
2023-04-26T22:23:49.206Z,4.93
2023-04-26T22:26:17.266Z,5.75
2023-04-26T22:28:45.308Z,8.43
2023-04-26T22:31:13.369Z,7.60
2023-04-26T22:33:41.433Z,4.63
2023-04-26T22:36:09.898Z,6.18
2023-04-26T22:38:39.735Z,4.97
2023-04-26T22:41:07.800Z,3.63
2023-04-26T22:43:35.979Z,6.53
2023-04-26T22:46:04.063Z,5.90
2023-04-26T22:48:32.157Z,5.10
2023-04-26T22:51:00.641Z,5.57
2023-04-26T22:53:28.683Z,5.88
2023-04-26T22:55:58.084Z,4.22
2023-04-26T22:58:26.197Z,4.28
2023-04-26T23:00:54.315Z,3.78
2023-04-26T23:03:22.446Z,7.82
2023-04-26T23:05:50.761Z,6.05
2023-04-26T23:08:18.803Z,6.32
2023-04-26T23:10:46.832Z,7.13
2023-04-26T23:13:16.246Z,8.45
2023-04-26T23:15:44.294Z,8.85
2023-04-26T23:18:13.662Z,6.28
2023-04-26T23:20:41.934Z,4.50
2023-04-26T23:23:09.981Z,5.28
2023-04-26T23:25:41.698Z,5.22
2023-04-26T23:28:09.782Z,3.30
2023-04-26T23:30:39.215Z,4.00
2023-04-26T23:33:07.383Z,7.47
2023-04-26T23:35:35.462Z,4.60
2023-04-26T23:38:03.540Z,7.35
2023-04-26T23:40:31.576Z,7.28
2023-04-26T23:42:59.596Z,7.65
2023-04-26T23:45:27.626Z,6.75
2023-04-26T23:47:57.095Z,4.15
2023-04-26T23:50:25.162Z,7.45
2023-04-26T23:52:53.208Z,3.72
2023-04-26T23:55:21.233Z,7.18
2023-04-26T23:57:49.256Z,7.80
